createdAt,value
2022-12-18T00:03:28.314Z,10.90
2022-12-18T00:08:30.807Z,11.88
2022-12-18T00:13:33.309Z,11.25
2022-12-18T00:18:36.143Z,10.73
2022-12-18T00:23:40.712Z,11.05
2022-12-18T00:28:44.807Z,9.63
2022-12-18T00:33:47.689Z,11.85
2022-12-18T00:38:52.790Z,10.85
2022-12-18T00:43:55.144Z,11.57
2022-12-18T00:48:57.673Z,11.68
2022-12-18T00:54:00.243Z,11.38
2022-12-18T00:59:02.685Z,11.15
2022-12-18T01:04:06.710Z,10.75
2022-12-18T01:09:09.160Z,11.65
2022-12-18T01:14:12.779Z,12.93
2022-12-18T01:19:15.282Z,11.50
2022-12-18T01:24:17.660Z,12.27
2022-12-18T01:29:20.115Z,11.13
2022-12-18T01:34:22.862Z,12.82
2022-12-18T01:39:25.405Z,12.73
2022-12-18T01:44:49.682Z,12.38
2022-12-18T01:49:52.757Z,14.40
2022-12-18T01:54:56.823Z,12.05
2022-12-18T02:00:03.406Z,11.95
2022-12-18T02:05:20.119Z,11.68
2022-12-18T02:10:29.082Z,12.32
2022-12-18T02:15:51.717Z,11.18
2022-12-18T02:21:32.674Z,12.38
2022-12-18T02:26:45.859Z,11.38
2022-12-18T02:32:00.758Z,11.82
2022-12-18T02:37:07.052Z,13.23
2022-12-18T02:42:11.397Z,13.30
2022-12-18T02:47:16.147Z,13.35
2022-12-18T02:52:27.736Z,12.88
2022-12-18T02:57:45.738Z,14.02
2022-12-18T03:03:13.550Z,12.90
2022-12-18T03:08:23.017Z,12.13
2022-12-18T03:13:41.472Z,12.38
2022-12-18T03:19:00.187Z,12.98
2022-12-18T03:24:07.351Z,13.13
2022-12-18T03:29:16.301Z,13.35
2022-12-18T03:34:25.051Z,13.02
2022-12-18T03:39:27.663Z,10.80
2022-12-18T03:44:45.299Z,13.20
2022-12-18T03:50:24.342Z,13.15
2022-12-18T03:55:31.812Z,13.95
2022-12-18T04:00:39.270Z,13.75
2022-12-18T04:05:47.007Z,13.07
2022-12-18T04:10:51.048Z,12.20
2022-12-18T04:15:54.616Z,13.18
2022-12-18T04:20:58.041Z,13.10
2022-12-18T04:26:01.290Z,12.93
2022-12-18T04:31:27.485Z,12.63
2022-12-18T04:36:30.248Z,12.38
2022-12-18T04:41:32.633Z,12.32
2022-12-18T04:46:38.802Z,14.23
2022-12-18T04:51:41.454Z,12.32
2022-12-18T04:56:43.908Z,12.60
2022-12-18T05:01:47.247Z,12.27
2022-12-18T05:06:49.862Z,12.43
2022-12-18T05:11:52.334Z,12.90
2022-12-18T05:16:57.962Z,12.95
2022-12-18T05:22:03.356Z,12.73
2022-12-18T05:27:05.830Z,12.20
2022-12-18T05:32:08.198Z,12.20
2022-12-18T05:37:10.664Z,11.43
2022-12-18T05:42:13.122Z,12.52
2022-12-18T05:47:15.714Z,12.80
2022-12-18T05:52:18.223Z,13.27
2022-12-18T05:57:20.701Z,12.30
2022-12-18T06:02:23.351Z,11.77
2022-12-18T06:07:25.861Z,12.57
2022-12-18T06:12:28.342Z,13.13
2022-12-18T06:17:31.856Z,13.18
2022-12-18T06:22:34.783Z,13.48
2022-12-18T06:27:37.151Z,13.32
2022-12-18T06:32:39.569Z,14.43
2022-12-18T06:37:42.006Z,13.10
2022-12-18T06:42:44.455Z,13.43
2022-12-18T06:47:46.925Z,13.93
2022-12-18T06:52:49.324Z,14.45
2022-12-18T06:57:51.866Z,14.27
2022-12-18T07:02:54.349Z,14.02
2022-12-18T07:07:57.095Z,14.23
2022-12-18T07:12:59.501Z,13.25
2022-12-18T07:18:01.954Z,12.68
2022-12-18T07:23:06.483Z,11.38
2022-12-18T07:28:12.847Z,11.93
2022-12-18T07:33:19.578Z,10.75
2022-12-18T07:38:22.156Z,11.38
2022-12-18T07:43:24.572Z,10.45
2022-12-18T07:48:27.044Z,10.75
2022-12-18T07:53:29.665Z,9.93
2022-12-18T07:58:32.774Z,9.45
2022-12-18T08:03:35.767Z,10.07
2022-12-18T08:08:38.510Z,10.73
2022-12-18T08:13:41.219Z,10.88
2022-12-18T08:18:44.067Z,11.82
2022-12-18T08:23:46.757Z,10.68
2022-12-18T08:28:50.468Z,11.27
2022-12-18T08:33:54.126Z,10.73
2022-12-18T08:38:58.383Z,11.15
2022-12-18T08:44:19.704Z,11.07
2022-12-18T08:49:22.116Z,10.73
2022-12-18T08:54:26.068Z,12.15
2022-12-18T08:59:31.464Z,12.38
2022-12-18T09:04:33.979Z,11.45
2022-12-18T09:09:37.146Z,11.65
2022-12-18T09:14:39.621Z,11.07
2022-12-18T09:19:42.137Z,11.90
2022-12-18T09:24:45.038Z,11.23
2022-12-18T09:29:47.840Z,11.43
2022-12-18T09:34:50.691Z,11.75
2022-12-18T09:39:53.085Z,11.77
2022-12-18T09:44:56.000Z,11.88
2022-12-18T09:50:03.186Z,10.88
2022-12-18T09:55:24.046Z,12.27
2022-12-18T10:00:27.061Z,12.88
2022-12-18T10:05:40.234Z,12.90
2022-12-18T10:10:54.312Z,14.82
2022-12-18T10:16:26.731Z,12.98
2022-12-18T10:21:35.195Z,13.40
2022-12-18T10:26:37.774Z,13.13
2022-12-18T10:31:40.688Z,13.30
2022-12-18T10:36:43.740Z,13.43
2022-12-18T10:41:46.581Z,13.68
2022-12-18T10:47:10.073Z,12.27
2022-12-18T10:52:19.389Z,12.77
2022-12-18T10:57:36.901Z,12.98
2022-12-18T11:02:40.338Z,12.25
2022-12-18T11:07:51.531Z,12.25
2022-12-18T11:12:54.009Z,11.52
2022-12-18T11:17:56.854Z,11.90
2022-12-18T11:23:05.854Z,12.43
2022-12-18T11:28:28.284Z,12.90
2022-12-18T11:33:31.080Z,11.77
2022-12-18T11:38:44.126Z,11.75
2022-12-18T11:44:00.323Z,14.52
2022-12-18T11:49:29.843Z,13.00
2022-12-18T11:54:32.721Z,13.35
2022-12-18T11:59:50.136Z,12.35
2022-12-18T12:05:21.178Z,12.13
2022-12-18T12:10:29.722Z,13.45
2022-12-18T12:15:52.540Z,11.10
2022-12-18T12:20:55.032Z,11.57
2022-12-18T12:26:20.539Z,11.95
2022-12-18T12:31:35.446Z,11.85
2022-12-18T12:37:13.192Z,11.85
2022-12-18T12:43:06.102Z,14.23
2022-12-18T12:48:18.906Z,12.63
2022-12-18T12:53:36.843Z,13.75
2022-12-18T12:59:20.598Z,14.35
2022-12-18T13:04:42.535Z,15.38
2022-12-18T13:10:12.772Z,13.88
2022-12-18T13:15:46.231Z,15.40
2022-12-18T13:21:03.162Z,16.83
2022-12-18T13:26:07.261Z,16.33
2022-12-18T13:31:09.620Z,17.70
2022-12-18T13:36:24.409Z,16.88
2022-12-18T13:41:29.521Z,15.98
2022-12-18T13:46:43.688Z,16.20
2022-12-18T13:51:51.109Z,14.90
2022-12-18T13:56:55.252Z,15.75
2022-12-18T14:02:00.325Z,18.08
2022-12-18T14:07:18.321Z,16.02
2022-12-18T14:12:45.859Z,14.88
2022-12-18T14:17:52.364Z,15.52
2022-12-18T14:22:59.092Z,14.77
2022-12-18T14:28:08.685Z,15.65
2022-12-18T14:33:15.589Z,13.68
2022-12-18T14:38:21.516Z,13.40
2022-12-18T14:43:24.274Z,14.48
2022-12-18T14:48:40.034Z,14.75
2022-12-18T14:53:52.101Z,15.35
2022-12-18T14:59:03.517Z,14.82
2022-12-18T15:04:24.770Z,16.00
2022-12-18T15:09:27.639Z,15.30
2022-12-18T15:14:42.896Z,16.13
2022-12-18T15:19:47.278Z,14.77
2022-12-18T15:24:50.244Z,16.15
2022-12-18T15:30:17.446Z,16.42
2022-12-18T15:35:25.269Z,16.33
2022-12-18T15:40:27.789Z,17.05
2022-12-18T15:45:30.575Z,17.05
2022-12-18T15:50:35.916Z,16.20
2022-12-18T15:56:01.026Z,16.95
2022-12-18T16:01:03.994Z,16.42
2022-12-18T16:06:06.713Z,17.35
2022-12-18T16:11:41.902Z,16.95
2022-12-18T16:16:44.779Z,17.38
2022-12-18T16:21:48.801Z,19.30
2022-12-18T16:26:55.310Z,16.90
2022-12-18T16:31:59.294Z,18.42
2022-12-18T16:37:06.064Z,20.60
2022-12-18T16:42:20.802Z,20.73
2022-12-18T16:47:23.437Z,19.50
2022-12-18T16:52:26.340Z,19.85
2022-12-18T16:57:28.856Z,20.88
2022-12-18T17:02:31.478Z,19.05
2022-12-18T17:07:36.346Z,17.85
2022-12-18T17:12:39.303Z,17.70
2022-12-18T17:17:41.752Z,18.67
2022-12-18T17:22:44.195Z,17.83
2022-12-18T17:27:46.661Z,18.77
2022-12-18T17:32:49.094Z,18.20
2022-12-18T17:37:51.615Z,18.75
2022-12-18T17:42:54.131Z,17.95
2022-12-18T17:47:59.991Z,18.63
2022-12-18T17:53:03.288Z,17.92
2022-12-18T17:58:05.734Z,18.20
2022-12-18T18:03:08.872Z,16.20
2022-12-18T18:08:11.457Z,15.95
2022-12-18T18:13:51.988Z,16.73
2022-12-18T18:18:57.863Z,16.92
2022-12-18T18:24:05.307Z,15.30
2022-12-18T18:29:15.162Z,15.35
2022-12-18T18:34:25.276Z,14.43
2022-12-18T18:39:28.327Z,13.77
2022-12-18T18:44:30.954Z,13.93
2022-12-18T18:49:33.462Z,14.65
2022-12-18T18:54:35.983Z,14.25
2022-12-18T18:59:38.712Z,15.25
2022-12-18T19:04:46.084Z,14.63
2022-12-18T19:09:52.630Z,14.73
2022-12-18T19:14:55.404Z,16.02
2022-12-18T19:19:57.842Z,16.50
2022-12-18T19:25:00.383Z,15.70
2022-12-18T19:30:02.768Z,15.65
2022-12-18T19:35:06.260Z,14.45
2022-12-18T19:40:12.444Z,15.60
2022-12-18T19:45:15.722Z,17.20
2022-12-18T19:50:18.380Z,14.93
2022-12-18T19:55:20.965Z,19.17
2022-12-18T20:00:23.990Z,17.17
2022-12-18T20:05:26.399Z,13.75
2022-12-18T20:10:28.858Z,12.52
2022-12-18T20:15:31.298Z,8.45
2022-12-18T20:20:33.770Z,8.05
2022-12-18T20:25:38.785Z,7.65
2022-12-18T20:30:41.810Z,8.02
2022-12-18T20:35:44.238Z,7.30
2022-12-18T20:40:47.484Z,6.07
2022-12-18T20:45:49.988Z,7.05
2022-12-18T20:51:04.233Z,6.30
2022-12-18T20:56:17.798Z,6.90
2022-12-18T21:01:25.554Z,5.80
2022-12-18T21:06:28.149Z,6.68
2022-12-18T21:11:52.882Z,5.88
2022-12-18T21:16:56.079Z,6.75
2022-12-18T21:21:58.820Z,6.88
2022-12-18T21:27:02.132Z,6.50
2022-12-18T21:32:05.833Z,5.68
2022-12-18T21:37:08.245Z,5.25
2022-12-18T21:42:30.954Z,5.78
2022-12-18T21:47:33.474Z,5.40
2022-12-18T21:52:35.867Z,4.35
2022-12-18T21:57:39.509Z,3.53
2022-12-18T22:02:42.324Z,4.13
2022-12-18T22:07:44.889Z,3.92
2022-12-18T22:12:48.625Z,3.90
2022-12-18T22:17:53.446Z,2.65
2022-12-18T22:23:06.263Z,2.72
2022-12-18T22:28:27.678Z,2.47
2022-12-18T22:33:30.061Z,2.45
2022-12-18T22:38:32.495Z,2.65
2022-12-18T22:43:34.974Z,2.50
2022-12-18T22:48:37.333Z,2.78
2022-12-18T22:53:39.804Z,2.28
2022-12-18T22:58:48.701Z,2.08
2022-12-18T23:03:52.275Z,1.55
2022-12-18T23:08:58.381Z,1.30
2022-12-18T23:14:00.801Z,1.35
2022-12-18T23:19:04.369Z,1.45
2022-12-18T23:24:07.241Z,1.10
2022-12-18T23:29:09.937Z,1.33
2022-12-18T23:34:14.054Z,1.17
2022-12-18T23:39:29.092Z,1.55
2022-12-18T23:44:32.438Z,1.75
2022-12-18T23:49:34.856Z,1.65
2022-12-18T23:54:38.212Z,1.95
2022-12-18T23:59:40.763Z,1.45
